Details From KDKK - CHAUTAUQUA CO DUNKIRK
To CYKF - WATERLOO
Flight Number -
Tags decoded
Created
Modified
Stats Distance 76 nm / 141 km
Max Altitude 0 ft / 0 m
Waypoints 5
Social Downloads 2
Likes 0
Share VATSIM

Download

Looking for another format? Having issues loading an existing format? Contact us
Advertisement - Login to hide

Notes

Requested: KDKK CDU9 CPP6 CYHM CPT3 YWT CYKF Unmatched points: CPP6 CPT3

Route

KDKK CDU9 CYHM YWT CYKF

ID Type Via Altitude Latitude Longitude Leg Dist Tot Dist Heading (true) Name
O KDKK APT - 0 ft / 0 m 42.49396˚ -79.27118˚ - 0 nm - CHAUTAUQUA CO DUNKIRK
CDU9 APT - 0 ft / 0 m 42.87116˚ -79.59780˚ 26 nm 26 nm 328° / 327° Dunnville
CYHM APT - 0 ft / 0 m 43.17428˚ -79.93075˚ 23 nm 50 nm 321° / 321° John C Munro Hamilton Intl
YWT VOR - 0 ft / 0 m 43.45858˚ -80.37939˚ 25 nm 76 nm 311° / 311° WATERLOO VOR-DME
O CYKF APT - 0 ft / 0 m 43.46008˚ -80.38261˚ 0 nm 76 nm 303° / 303° WATERLOO

Altitude Profile

Advertisement - Login to hide

KDKK

Details ICAO KDKK (DKK)
Name CHAUTAUQUA CO DUNKIRK
Region United States
Timezone America/New_York (UTC-5.0)
Stats Elevation 693 ft / 211 m (AMSL)
Location 42.493960° -79.271178°
Runways 2
Magnetic Variation 10.249° W

METAR

KDKK 141300Z AUTO 31010KT 4SM -SN BR BKN013 OVC022 M09/M11 A2981 RMK AO2 P0000 T10891111

Decode

TAF

Not found

Departure Runways

ID Width Length Bearing (true) Bearing (mag) Surface Threshold Offset Overrun Length
06 100 ft / 30 m 5,003 ft / 1,525 m 50.00° 60.25° Asphalt 0 ft / 0 m 0 ft / 0 m
15 100 ft / 30 m 4,004 ft / 1,220 m 138.98° 149.23° Asphalt 0 ft / 0 m 0 ft / 0 m
24 100 ft / 30 m 5,003 ft / 1,525 m 230.01° 240.26° Asphalt 0 ft / 0 m 0 ft / 0 m
33 100 ft / 30 m 4,004 ft / 1,220 m 318.98° 329.23° Asphalt 0 ft / 0 m 0 ft / 0 m

CYKF

Details ICAO CYKF (YKF)
Name WATERLOO
Region Canada
Timezone America/Toronto (UTC-5.0)
Stats Elevation 1,054 ft / 321 m (AMSL)
Location 43.460084° -80.382613°
Runways 2
Magnetic Variation 9.733° W

METAR

CYKF 141300Z AUTO 29007KT 9SM CLR M16/M18 A2979 RMK PRESRR SLP113

Decode

TAF

TAF CYKF 140739Z 1408/1420 36010G20KT P6SM SCT030 BKN050 TEMPO 1408/1412 5SM -SHSN BKN030 OVC050 BECMG 1410/1412 34008KT FM141200 32008KT P6SM SCT030 BECMG 1416/1418 30012KT RMK FCST BASED ON AUTO OBS. NXT FCST BY 141400Z

Decode

Destination Runways

ID Width Length Bearing (true) Bearing (mag) Surface Threshold Offset Overrun Length
08 150 ft / 46 m 6,988 ft / 2,130 m 64.02° 73.75° Asphalt 0 ft / 0 m 0 ft / 0 m
14 150 ft / 46 m 4,055 ft / 1,236 m 128.69° 138.42° Asphalt 0 ft / 0 m 0 ft / 0 m
26 150 ft / 46 m 6,988 ft / 2,130 m 244.03° 253.76° Asphalt 0 ft / 0 m 0 ft / 0 m
32 150 ft / 46 m 4,055 ft / 1,236 m 308.69° 318.42° Asphalt 0 ft / 0 m 0 ft / 0 m

Approach Navaids

Runway Type Ident Frequency Range Bearing (true) Bearing (mag) Slope Elevation
26 Localiser IKF 110.70 MHz 18 nm / 33 km 244.03° 253.76° - 1,020 ft / 311 m (AMSL)
26 Glidescope IKF 110.70 MHz 10 nm / 19 km 244.03° 253.76° 3.00° 1,033 ft / 315 m (AMSL)